sensor_id;sensor_type;location;lat;lon;timestamp;temperature;humidity
39677;DHT22;27789;50.840;4.386;2022-10-16T01:31:39;14.80;99.90
39677;DHT22;27789;50.840;4.386;2022-10-16T01:36:42;14.80;99.90
39677;DHT22;27789;50.840;4.386;2022-10-16T01:39:11;14.90;99.90
39677;DHT22;27789;50.840;4.386;2022-10-16T01:42:00;14.90;99.90
39677;DHT22;27789;50.840;4.386;2022-10-16T01:44:29;14.90;99.90
39677;DHT22;27789;50.840;4.386;2022-10-16T01:46:56;14.90;99.90
39677;DHT22;27789;50.840;4.386;2022-10-16T01:49:24;14.90;99.90
39677;DHT22;27789;50.840;4.386;2022-10-16T01:51:54;14.90;99.90
39677;DHT22;27789;50.840;4.386;2022-10-16T01:54:23;14.90;99.90
39677;DHT22;27789;50.840;4.386;2022-10-16T01:56:55;14.90;99.90
39677;DHT22;27789;50.840;4.386;2022-10-16T01:59:24;14.90;99.90
39677;DHT22;27789;50.840;4.386;2022-10-16T02:01:55;14.80;99.90
39677;DHT22;27789;50.840;4.386;2022-10-16T02:04:30;14.90;99.90
39677;DHT22;27789;50.840;4.386;2022-10-16T02:06:57;14.90;99.90
39677;DHT22;27789;50.840;4.386;2022-10-16T02:09:23;14.80;99.90
39677;DHT22;27789;50.840;4.386;2022-10-16T02:11:51;14.80;99.90
39677;DHT22;27789;50.840;4.386;2022-10-16T02:14:19;14.80;99.90
39677;DHT22;27789;50.840;4.386;2022-10-16T02:16:46;14.70;99.90
39677;DHT22;27789;50.840;4.386;2022-10-16T02:19:13;14.70;99.90
39677;DHT22;27789;50.840;4.386;2022-10-16T02:21:48;14.70;99.90
39677;DHT22;27789;50.840;4.386;2022-10-16T02:26:57;14.60;99.90
39677;DHT22;27789;50.840;4.386;2022-10-16T02:29:25;14.60;99.90
39677;DHT22;27789;50.840;4.386;2022-10-16T02:31:55;14.70;99.90
39677;DHT22;27789;50.840;4.386;2022-10-16T02:34:24;14.70;99.90
39677;DHT22;27789;50.840;4.386;2022-10-16T02:36:51;14.70;99.90
39677;DHT22;27789;50.840;4.386;2022-10-16T02:39:18;14.80;99.90
39677;DHT22;27789;50.840;4.386;2022-10-16T02:41:45;14.80;99.90
39677;DHT22;27789;50.840;4.386;2022-10-16T02:44:10;14.70;99.90
39677;DHT22;27789;50.840;4.386;2022-10-16T02:46:36;14.70;99.90
39677;DHT22;27789;50.840;4.386;2022-10-16T02:49:02;14.70;99.90
39677;DHT22;27789;50.840;4.386;2022-10-16T02:51:28;14.70;99.90
39677;DHT22;27789;50.840;4.386;2022-10-16T02:53:54;14.60;99.90
39677;DHT22;27789;50.840;4.386;2022-10-16T02:56:20;14.60;99.90
39677;DHT22;27789;50.840;4.386;2022-10-16T02:58:45;14.60;99.90
39677;DHT22;27789;50.840;4.386;2022-10-16T03:01:11;14.50;99.90
39677;DHT22;27789;50.840;4.386;2022-10-16T03:03:38;14.60;99.90
39677;DHT22;27789;50.840;4.386;2022-10-16T03:06:04;14.60;99.90
39677;DHT22;27789;50.840;4.386;2022-10-16T03:08:30;14.60;99.90
39677;DHT22;27789;50.840;4.386;2022-10-16T03:10:55;14.60;99.90
39677;DHT22;27789;50.840;4.386;2022-10-16T03:13:21;14.60;99.90
39677;DHT22;27789;50.840;4.386;2022-10-16T03:15:47;14.70;99.90
39677;DHT22;27789;50.840;4.386;2022-10-16T03:18:12;14.70;99.90
39677;DHT22;27789;50.840;4.386;2022-10-16T03:20:38;14.70;99.90
39677;DHT22;27789;50.840;4.386;2022-10-16T03:23:03;14.60;99.90
39677;DHT22;27789;50.840;4.386;2022-10-16T03:25:29;14.60;99.90
39677;DHT22;27789;50.840;4.386;2022-10-16T03:27:55;14.60;99.90
39677;DHT22;27789;50.840;4.386;2022-10-16T03:30:20;14.60;99.90
39677;DHT22;27789;50.840;4.386;2022-10-16T03:32:46;14.60;99.90
39677;DHT22;27789;50.840;4.386;2022-10-16T03:35:12;14.70;99.90
39677;DHT22;27789;50.840;4.386;2022-10-16T03:37:38;14.70;99.90
39677;DHT22;27789;50.840;4.386;2022-10-16T03:40:04;14.70;99.90
39677;DHT22;27789;50.840;4.386;2022-10-16T03:42:30;14.70;99.90
39677;DHT22;27789;50.840;4.386;2022-10-16T03:44:55;14.70;99.90
39677;DHT22;27789;50.840;4.386;2022-10-16T03:47:21;14.60;99.90
39677;DHT22;27789;50.840;4.386;2022-10-16T03:49:49;14.60;99.90
39677;DHT22;27789;50.840;4.386;2022-10-16T03:52:14;15.00;99.90
39677;DHT22;27789;50.840;4.386;2022-10-16T03:54:40;14.70;99.90
39677;DHT22;27789;50.840;4.386;2022-10-16T03:57:05;14.60;99.90
39677;DHT22;27789;50.840;4.386;2022-10-16T03:59:31;14.70;99.90
39677;DHT22;27789;50.840;4.386;2022-10-16T04:01:57;14.60;99.90
39677;DHT22;27789;50.840;4.386;2022-10-16T04:04:22;14.60;99.90
39677;DHT22;27789;50.840;4.386;2022-10-16T04:06:48;14.70;99.90
39677;DHT22;27789;50.840;4.386;2022-10-16T04:09:13;14.70;99.90
39677;DHT22;27789;50.840;4.386;2022-10-16T04:11:39;14.60;99.90
39677;DHT22;27789;50.840;4.386;2022-10-16T04:14:05;14.60;99.90
39677;DHT22;27789;50.840;4.386;2022-10-16T04:16:30;14.60;99.90
39677;DHT22;27789;50.840;4.386;2022-10-16T04:18:56;14.60;99.90
39677;DHT22;27789;50.840;4.386;2022-10-16T04:21:21;14.70;99.90
39677;DHT22;27789;50.840;4.386;2022-10-16T04:23:48;14.70;99.90
39677;DHT22;27789;50.840;4.386;2022-10-16T04:26:14;14.60;99.90
39677;DHT22;27789;50.840;4.386;2022-10-16T04:28:40;14.60;99.90
39677;DHT22;27789;50.840;4.386;2022-10-16T04:31:06;14.60;99.90
39677;DHT22;27789;50.840;4.386;2022-10-16T04:33:33;14.70;99.90
39677;DHT22;27789;50.840;4.386;2022-10-16T04:35:59;14.60;99.90
39677;DHT22;27789;50.840;4.386;2022-10-16T04:38:26;14.70;99.90
39677;DHT22;27789;50.840;4.386;2022-10-16T04:40:51;14.40;99.90
39677;DHT22;27789;50.840;4.386;2022-10-16T04:43:18;14.50;99.90
39677;DHT22;27789;50.840;4.386;2022-10-16T04:45:43;14.50;99.90
39677;DHT22;27789;50.840;4.386;2022-10-16T04:48:09;14.50;99.90
39677;DHT22;27789;50.840;4.386;2022-10-16T04:50:35;14.60;99.90
39677;DHT22;27789;50.840;4.386;2022-10-16T04:53:00;14.50;99.90
39677;DHT22;27789;50.840;4.386;2022-10-16T04:55:26;14.40;99.90
39677;DHT22;27789;50.840;4.386;2022-10-16T04:57:52;14.50;99.90
39677;DHT22;27789;50.840;4.386;2022-10-16T05:00:17;14.60;99.90
39677;DHT22;27789;50.840;4.386;2022-10-16T05:02:43;14.40;99.90
39677;DHT22;27789;50.840;4.386;2022-10-16T05:05:08;14.40;99.90
39677;DHT22;27789;50.840;4.386;2022-10-16T05:07:34;14.50;99.90
39677;DHT22;27789;50.840;4.386;2022-10-16T05:10:00;14.50;99.90
39677;DHT22;27789;50.840;4.386;2022-10-16T05:12:25;14.50;99.90
39677;DHT22;27789;50.840;4.386;2022-10-16T05:14:51;14.50;99.90
39677;DHT22;27789;50.840;4.386;2022-10-16T05:17:16;14.50;99.90
39677;DHT22;27789;50.840;4.386;2022-10-16T05:19:42;14.50;99.90
39677;DHT22;27789;50.840;4.386;2022-10-16T05:22:08;14.50;99.90
39677;DHT22;27789;50.840;4.386;2022-10-16T05:24:33;14.40;99.90
39677;DHT22;27789;50.840;4.386;2022-10-16T05:26:59;14.40;99.90
39677;DHT22;27789;50.840;4.386;2022-10-16T05:29:24;14.40;99.90
39677;DHT22;27789;50.840;4.386;2022-10-16T05:31:53;14.30;99.90
39677;DHT22;27789;50.840;4.386;2022-10-16T05:34:19;14.30;99.90
39677;DHT22;27789;50.840;4.386;2022-10-16T05:36:45;14.30;99.90
39677;DHT22;27789;50.840;4.386;2022-10-16T05:39:11;14.30;99.90
39677;DHT22;27789;50.840;4.386;2022-10-16T05:41:37;14.20;99.90
39677;DHT22;27789;50.840;4.386;2022-10-16T05:44:06;14.30;99.90
39677;DHT22;27789;50.840;4.386;2022-10-16T05:46:32;14.20;99.90
39677;DHT22;27789;50.840;4.386;2022-10-16T05:48:58;14.20;99.90
39677;DHT22;27789;50.840;4.386;2022-10-16T05:51:23;14.30;99.90
39677;DHT22;27789;50.840;4.386;2022-10-16T05:53:49;14.20;99.90
39677;DHT22;27789;50.840;4.386;2022-10-16T05:56:15;14.20;99.90
39677;DHT22;27789;50.840;4.386;2022-10-16T05:58:41;14.20;99.90
39677;DHT22;27789;50.840;4.386;2022-10-16T06:01:10;14.30;99.90
39677;DHT22;27789;50.840;4.386;2022-10-16T06:03:36;14.20;99.90
39677;DHT22;27789;50.840;4.386;2022-10-16T06:06:14;14.20;99.90
39677;DHT22;27789;50.840;4.386;2022-10-16T06:08:41;14.20;99.90
39677;DHT22;27789;50.840;4.386;2022-10-16T06:11:09;14.20;99.90
39677;DHT22;27789;50.840;4.386;2022-10-16T06:13:35;14.20;99.90
39677;DHT22;27789;50.840;4.386;2022-10-16T06:16:02;14.20;99.90
39677;DHT22;27789;50.840;4.386;2022-10-16T06:18:29;14.20;99.90
39677;DHT22;27789;50.840;4.386;2022-10-16T06:20:55;14.20;99.90
39677;DHT22;27789;50.840;4.386;2022-10-16T06:23:21;14.30;99.90
39677;DHT22;27789;50.840;4.386;2022-10-16T06:25:47;14.30;99.90
39677;DHT22;27789;50.840;4.386;2022-10-16T06:28:16;14.30;99.90
39677;DHT22;27789;50.840;4.386;2022-10-16T06:30:42;14.30;99.90
39677;DHT22;27789;50.840;4.386;2022-10-16T06:33:11;14.30;99.90
39677;DHT22;27789;50.840;4.386;2022-10-16T06:35:37;14.30;99.90
39677;DHT22;27789;50.840;4.386;2022-10-16T06:38:03;14.30;99.90
39677;DHT22;27789;50.840;4.386;2022-10-16T06:40:28;14.40;99.90
39677;DHT22;27789;50.840;4.386;2022-10-16T06:42:57;14.40;99.90
39677;DHT22;27789;50.840;4.386;2022-10-16T06:45:22;14.40;99.90
39677;DHT22;27789;50.840;4.386;2022-10-16T06:47:48;14.50;99.90
39677;DHT22;27789;50.840;4.386;2022-10-16T06:50:14;14.40;99.90
39677;DHT22;27789;50.840;4.386;2022-10-16T06:52:39;14.60;99.90
39677;DHT22;27789;50.840;4.386;2022-10-16T06:55:05;14.60;99.90
39677;DHT22;27789;50.840;4.386;2022-10-16T06:57:31;14.70;99.90
39677;DHT22;27789;50.840;4.386;2022-10-16T06:59:56;14.70;99.90
39677;DHT22;27789;50.840;4.386;2022-10-16T07:02:22;14.70;99.90
39677;DHT22;27789;50.840;4.386;2022-10-16T07:04:47;14.70;99.90
39677;DHT22;27789;50.840;4.386;2022-10-16T07:07:13;14.70;99.90
39677;DHT22;27789;50.840;4.386;2022-10-16T07:09:40;14.70;99.90
39677;DHT22;27789;50.840;4.386;2022-10-16T07:12:05;14.80;99.90
39677;DHT22;27789;50.840;4.386;2022-10-16T07:14:31;14.90;99.90
39677;DHT22;27789;50.840;4.386;2022-10-16T07:16:56;14.90;99.90
39677;DHT22;27789;50.840;4.386;2022-10-16T07:19:22;14.90;99.90
39677;DHT22;27789;50.840;4.386;2022-10-16T07:21:48;14.90;99.90
39677;DHT22;27789;50.840;4.386;2022-10-16T07:24:15;15.00;99.90
39677;DHT22;27789;50.840;4.386;2022-10-16T07:26:43;14.90;99.90
39677;DHT22;27789;50.840;4.386;2022-10-16T07:29:17;14.90;99.90
39677;DHT22;27789;50.840;4.386;2022-10-16T07:31:43;14.90;99.90
39677;DHT22;27789;50.840;4.386;2022-10-16T07:34:11;14.90;99.90
39677;DHT22;27789;50.840;4.386;2022-10-16T07:36:37;14.90;99.90
39677;DHT22;27789;50.840;4.386;2022-10-16T07:39:03;14.90;99.90
39677;DHT22;27789;50.840;4.386;2022-10-16T07:41:28;15.00;99.90
39677;DHT22;27789;50.840;4.386;2022-10-16T07:43:54;15.00;99.90
39677;DHT22;27789;50.840;4.386;2022-10-16T07:46:23;15.00;99.90
39677;DHT22;27789;50.840;4.386;2022-10-16T07:48:49;15.10;99.90
39677;DHT22;27789;50.840;4.386;2022-10-16T07:51:16;15.20;99.90
39677;DHT22;27789;50.840;4.386;2022-10-16T07:53:45;15.20;99.90
39677;DHT22;27789;50.840;4.386;2022-10-16T07:56:12;15.30;99.90
39677;DHT22;27789;50.840;4.386;2022-10-16T07:58:38;15.40;99.90
39677;DHT22;27789;50.840;4.386;2022-10-16T08:01:08;15.40;99.90
39677;DHT22;27789;50.840;4.386;2022-10-16T08:03:34;15.50;99.90
39677;DHT22;27789;50.840;4.386;2022-10-16T08:06:00;15.50;99.90
39677;DHT22;27789;50.840;4.386;2022-10-16T08:08:26;15.60;99.90
39677;DHT22;27789;50.840;4.386;2022-10-16T08:10:52;15.60;99.90
39677;DHT22;27789;50.840;4.386;2022-10-16T08:13:18;15.60;99.90
39677;DHT22;27789;50.840;4.386;2022-10-16T08:15:45;15.60;99.90
39677;DHT22;27789;50.840;4.386;2022-10-16T08:18:12;15.70;99.90
39677;DHT22;27789;50.840;4.386;2022-10-16T08:20:39;15.70;99.90
39677;DHT22;27789;50.840;4.386;2022-10-16T08:23:04;15.80;99.90
39677;DHT22;27789;50.840;4.386;2022-10-16T08:25:30;15.70;99.90
39677;DHT22;27789;50.840;4.386;2022-10-16T08:27:56;15.80;99.90
39677;DHT22;27789;50.840;4.386;2022-10-16T08:30:23;15.70;99.90
39677;DHT22;27789;50.840;4.386;2022-10-16T08:32:49;15.90;99.90
39677;DHT22;27789;50.840;4.386;2022-10-16T08:35:15;15.80;99.90
39677;DHT22;27789;50.840;4.386;2022-10-16T08:37:41;15.80;99.90
39677;DHT22;27789;50.840;4.386;2022-10-16T08:40:16;15.90;99.90
39677;DHT22;27789;50.840;4.386;2022-10-16T08:50:37;15.90;99.90
39677;DHT22;27789;50.840;4.386;2022-10-16T08:53:04;15.90;99.90
39677;DHT22;27789;50.840;4.386;2022-10-16T08:58:14;16.10;99.90
39677;DHT22;27789;50.840;4.386;2022-10-16T09:00:42;16.20;99.90
39677;DHT22;27789;50.840;4.386;2022-10-16T09:03:24;16.20;99.90
39677;DHT22;27789;50.840;4.386;2022-10-16T09:16:24;16.60;99.90
39677;DHT22;27789;50.840;4.386;2022-10-16T09:21:43;16.70;99.90
39677;DHT22;27789;50.840;4.386;2022-10-16T09:24:15;16.60;99.90
39677;DHT22;27789;50.840;4.386;2022-10-16T09:26:42;16.60;99.90
39677;DHT22;27789;50.840;4.386;2022-10-16T09:29:12;16.80;99.90
39677;DHT22;27789;50.840;4.386;2022-10-16T09:31:38;16.90;99.90
39677;DHT22;27789;50.840;4.386;2022-10-16T09:34:04;17.00;99.90
39677;DHT22;27789;50.840;4.386;2022-10-16T09:36:38;17.10;99.90
39677;DHT22;27789;50.840;4.386;2022-10-16T09:39:09;17.20;99.90
39677;DHT22;27789;50.840;4.386;2022-10-16T09:41:39;17.50;99.90
39677;DHT22;27789;50.840;4.386;2022-10-16T09:47:01;17.80;99.90
39677;DHT22;27789;50.840;4.386;2022-10-16T09:49:27;18.20;99.90
39677;DHT22;27789;50.840;4.386;2022-10-16T09:54:52;19.50;99.90
39677;DHT22;27789;50.840;4.386;2022-10-16T09:57:19;20.80;99.90
39677;DHT22;27789;50.840;4.386;2022-10-16T09:59:56;21.90;99.90
39677;DHT22;27789;50.840;4.386;2022-10-16T10:02:35;22.70;99.90
39677;DHT22;27789;50.840;4.386;2022-10-16T10:05:02;23.30;99.90
39677;DHT22;27789;50.840;4.386;2022-10-16T10:07:37;24.10;99.90
39677;DHT22;27789;50.840;4.386;2022-10-16T10:10:18;24.30;98.90
39677;DHT22;27789;50.840;4.386;2022-10-16T10:12:45;24.70;97.90
39677;DHT22;27789;50.840;4.386;2022-10-16T10:15:12;24.80;97.70
39677;DHT22;27789;50.840;4.386;2022-10-16T10:17:53;24.60;97.10
39677;DHT22;27789;50.840;4.386;2022-10-16T10:20:31;24.50;97.50
39677;DHT22;27789;50.840;4.386;2022-10-16T10:23:00;25.20;96.80
39677;DHT22;27789;50.840;4.386;2022-10-16T10:39:27;23.90;96.80
39677;DHT22;27789;50.840;4.386;2022-10-16T10:47:24;24.80;96.40
39677;DHT22;27789;50.840;4.386;2022-10-16T11:00:58;26.40;93.20
39677;DHT22;27789;50.840;4.386;2022-10-16T11:06:17;27.10;92.00
39677;DHT22;27789;50.840;4.386;2022-10-16T11:08:49;25.40;93.50
39677;DHT22;27789;50.840;4.386;2022-10-16T11:11:27;24.50;94.20
39677;DHT22;27789;50.840;4.386;2022-10-16T11:14:00;23.50;95.40
39677;DHT22;27789;50.840;4.386;2022-10-16T11:16:39;22.60;96.00
39677;DHT22;27789;50.840;4.386;2022-10-16T11:19:22;23.30;96.10
39677;DHT22;27789;50.840;4.386;2022-10-16T11:21:59;24.40;94.80
39677;DHT22;27789;50.840;4.386;2022-10-16T11:27:18;25.70;93.30
39677;DHT22;27789;50.840;4.386;2022-10-16T11:29:51;24.50;93.30
39677;DHT22;27789;50.840;4.386;2022-10-16T11:32:23;23.40;94.30
39677;DHT22;27789;50.840;4.386;2022-10-16T11:34:59;23.60;94.60
39677;DHT22;27789;50.840;4.386;2022-10-16T11:37:28;24.30;93.40
39677;DHT22;27789;50.840;4.386;2022-10-16T11:40:02;24.70;93.40
39677;DHT22;27789;50.840;4.386;2022-10-16T11:42:41;26.20;92.40
39677;DHT22;27789;50.840;4.386;2022-10-16T11:45:39;27.50;91.40
39677;DHT22;27789;50.840;4.386;2022-10-16T11:50:56;27.80;90.00
39677;DHT22;27789;50.840;4.386;2022-10-16T11:55:47;25.80;90.60
39677;DHT22;27789;50.840;4.386;2022-10-16T11:58:27;25.10;91.10
39677;DHT22;27789;50.840;4.386;2022-10-16T12:06:31;23.30;93.50
39677;DHT22;27789;50.840;4.386;2022-10-16T12:08:59;23.10;93.90
39677;DHT22;27789;50.840;4.386;2022-10-16T12:16:33;23.30;95.40
39677;DHT22;27789;50.840;4.386;2022-10-16T12:19:14;23.40;95.10
39677;DHT22;27789;50.840;4.386;2022-10-16T12:21:41;23.00;95.50
39677;DHT22;27789;50.840;4.386;2022-10-16T12:26:57;22.60;95.90
39677;DHT22;27789;50.840;4.386;2022-10-16T12:32:00;22.50;96.10
39677;DHT22;27789;50.840;4.386;2022-10-16T12:34:29;22.50;95.80
39677;DHT22;27789;50.840;4.386;2022-10-16T12:37:50;22.40;96.00
39677;DHT22;27789;50.840;4.386;2022-10-16T12:39:57;22.20;96.40
39677;DHT22;27789;50.840;4.386;2022-10-16T12:44:52;21.70;95.70
39677;DHT22;27789;50.840;4.386;2022-10-16T12:47:24;21.40;96.60
39677;DHT22;27789;50.840;4.386;2022-10-16T12:50:00;21.30;96.90
39677;DHT22;27789;50.840;4.386;2022-10-16T12:52:35;21.30;97.30
39677;DHT22;27789;50.840;4.386;2022-10-16T12:55:01;21.20;97.50
39677;DHT22;27789;50.840;4.386;2022-10-16T13:00:14;20.90;98.00
39677;DHT22;27789;50.840;4.386;2022-10-16T13:02:58;20.80;98.30
39677;DHT22;27789;50.840;4.386;2022-10-16T13:10:57;21.20;98.00
39677;DHT22;27789;50.840;4.386;2022-10-16T13:26:40;21.30;98.40
39677;DHT22;27789;50.840;4.386;2022-10-16T13:29:09;21.20;98.70
39677;DHT22;27789;50.840;4.386;2022-10-16T13:31:38;21.20;99.00
39677;DHT22;27789;50.840;4.386;2022-10-16T13:34:05;21.20;99.30
39677;DHT22;27789;50.840;4.386;2022-10-16T13:36:43;21.10;99.40
39677;DHT22;27789;50.840;4.386;2022-10-16T13:42:02;21.30;99.10
39677;DHT22;27789;50.840;4.386;2022-10-16T13:44:34;21.20;98.90
39677;DHT22;27789;50.840;4.386;2022-10-16T13:47:01;21.10;99.00
39677;DHT22;27789;50.840;4.386;2022-10-16T13:49:27;21.00;99.00
39677;DHT22;27789;50.840;4.386;2022-10-16T13:51:58;20.80;98.90
39677;DHT22;27789;50.840;4.386;2022-10-16T13:54:26;20.70;99.40
39677;DHT22;27789;50.840;4.386;2022-10-16T13:56:54;20.70;99.30
39677;DHT22;27789;50.840;4.386;2022-10-16T14:01:49;20.50;98.60
39677;DHT22;27789;50.840;4.386;2022-10-16T14:04:15;20.50;98.60
39677;DHT22;27789;50.840;4.386;2022-10-16T14:06:44;20.50;98.70
39677;DHT22;27789;50.840;4.386;2022-10-16T14:11:55;20.30;99.20
39677;DHT22;27789;50.840;4.386;2022-10-16T14:14:22;20.20;99.80
39677;DHT22;27789;50.840;4.386;2022-10-16T14:16:48;20.10;99.90
39677;DHT22;27789;50.840;4.386;2022-10-16T14:19:26;20.20;99.90
39677;DHT22;27789;50.840;4.386;2022-10-16T14:21:52;20.20;99.90
39677;DHT22;27789;50.840;4.386;2022-10-16T14:26:55;20.20;99.90
39677;DHT22;27789;50.840;4.386;2022-10-16T14:29:23;20.30;99.90
39677;DHT22;27789;50.840;4.386;2022-10-16T14:32:02;20.20;99.90
39677;DHT22;27789;50.840;4.386;2022-10-16T14:34:31;20.20;99.90
39677;DHT22;27789;50.840;4.386;2022-10-16T14:37:00;20.20;99.90
39677;DHT22;27789;50.840;4.386;2022-10-16T14:39:27;20.20;99.90
39677;DHT22;27789;50.840;4.386;2022-10-16T14:41:56;20.30;99.90
39677;DHT22;27789;50.840;4.386;2022-10-16T14:44:32;20.30;99.90
39677;DHT22;27789;50.840;4.386;2022-10-16T14:47:06;20.20;99.90
39677;DHT22;27789;50.840;4.386;2022-10-16T14:49:32;20.20;99.90
39677;DHT22;27789;50.840;4.386;2022-10-16T14:51:58;20.20;99.90
39677;DHT22;27789;50.840;4.386;2022-10-16T14:54:23;20.20;99.90
39677;DHT22;27789;50.840;4.386;2022-10-16T14:56:53;20.20;99.90
39677;DHT22;27789;50.840;4.386;2022-10-16T14:59:30;20.20;99.90
39677;DHT22;27789;50.840;4.386;2022-10-16T15:01:57;20.20;99.90
39677;DHT22;27789;50.840;4.386;2022-10-16T15:04:23;20.20;99.90
39677;DHT22;27789;50.840;4.386;2022-10-16T15:06:48;20.20;99.90
39677;DHT22;27789;50.840;4.386;2022-10-16T15:09:14;20.10;99.90
39677;DHT22;27789;50.840;4.386;2022-10-16T15:11:40;20.20;99.90
39677;DHT22;27789;50.840;4.386;2022-10-16T15:14:08;20.20;99.90
39677;DHT22;27789;50.840;4.386;2022-10-16T15:16:33;20.20;99.90
39677;DHT22;27789;50.840;4.386;2022-10-16T15:18:59;20.10;99.90
39677;DHT22;27789;50.840;4.386;2022-10-16T15:21:28;20.10;99.90
39677;DHT22;27789;50.840;4.386;2022-10-16T15:23:54;20.10;99.90
39677;DHT22;27789;50.840;4.386;2022-10-16T15:26:22;20.00;99.90
39677;DHT22;27789;50.840;4.386;2022-10-16T15:28:48;20.00;99.90
39677;DHT22;27789;50.840;4.386;2022-10-16T15:31:13;19.90;99.90
39677;DHT22;27789;50.840;4.386;2022-10-16T15:33:39;19.90;99.90
39677;DHT22;27789;50.840;4.386;2022-10-16T15:36:05;19.90;99.90
39677;DHT22;27789;50.840;4.386;2022-10-16T15:38:30;19.80;99.90
39677;DHT22;27789;50.840;4.386;2022-10-16T15:40:56;19.80;99.90
39677;DHT22;27789;50.840;4.386;2022-10-16T15:43:22;19.80;99.90
39677;DHT22;27789;50.840;4.386;2022-10-16T15:45:59;19.70;99.90
39677;DHT22;27789;50.840;4.386;2022-10-16T15:48:25;19.70;99.90
39677;DHT22;27789;50.840;4.386;2022-10-16T15:50:51;19.60;99.90
39677;DHT22;27789;50.840;4.386;2022-10-16T15:53:17;19.60;99.90
39677;DHT22;27789;50.840;4.386;2022-10-16T15:55:42;19.60;99.90
39677;DHT22;27789;50.840;4.386;2022-10-16T15:58:08;19.50;99.90
39677;DHT22;27789;50.840;4.386;2022-10-16T16:00:33;19.50;99.90
39677;DHT22;27789;50.840;4.386;2022-10-16T16:02:59;19.50;99.90
39677;DHT22;27789;50.840;4.386;2022-10-16T16:05:25;19.40;99.90
39677;DHT22;27789;50.840;4.386;2022-10-16T16:07:51;19.50;99.90
39677;DHT22;27789;50.840;4.386;2022-10-16T16:10:17;19.40;99.90
39677;DHT22;27789;50.840;4.386;2022-10-16T16:12:43;19.40;99.90
39677;DHT22;27789;50.840;4.386;2022-10-16T16:15:14;19.30;99.90
39677;DHT22;27789;50.840;4.386;2022-10-16T16:17:40;19.30;99.90
39677;DHT22;27789;50.840;4.386;2022-10-16T16:20:06;19.30;99.90
39677;DHT22;27789;50.840;4.386;2022-10-16T16:22:32;19.20;99.90
39677;DHT22;27789;50.840;4.386;2022-10-16T16:24:58;19.20;99.90
39677;DHT22;27789;50.840;4.386;2022-10-16T16:27:23;19.20;99.90
39677;DHT22;27789;50.840;4.386;2022-10-16T16:29:50;19.20;99.90
39677;DHT22;27789;50.840;4.386;2022-10-16T16:32:15;19.10;99.90
39677;DHT22;27789;50.840;4.386;2022-10-16T16:34:41;19.20;99.90
39677;DHT22;27789;50.840;4.386;2022-10-16T16:37:07;19.10;99.90
39677;DHT22;27789;50.840;4.386;2022-10-16T16:39:32;19.10;99.90
39677;DHT22;27789;50.840;4.386;2022-10-16T16:41:58;19.10;99.90
39677;DHT22;27789;50.840;4.386;2022-10-16T16:44:24;19.00;99.90
39677;DHT22;27789;50.840;4.386;2022-10-16T16:46:50;19.00;99.90
39677;DHT22;27789;50.840;4.386;2022-10-16T16:49:15;19.00;99.90
39677;DHT22;27789;50.840;4.386;2022-10-16T16:51:41;18.90;99.90
39677;DHT22;27789;50.840;4.386;2022-10-16T16:54:07;18.90;99.90
39677;DHT22;27789;50.840;4.386;2022-10-16T16:56:33;18.90;99.90
39677;DHT22;27789;50.840;4.386;2022-10-16T16:58:59;18.90;99.90
39677;DHT22;27789;50.840;4.386;2022-10-16T17:01:26;18.80;99.90
39677;DHT22;27789;50.840;4.386;2022-10-16T17:03:54;18.80;99.90
39677;DHT22;27789;50.840;4.386;2022-10-16T17:06:22;18.70;99.90
39677;DHT22;27789;50.840;4.386;2022-10-16T17:08:49;18.70;99.90
39677;DHT22;27789;50.840;4.386;2022-10-16T17:11:20;18.70;99.90
39677;DHT22;27789;50.840;4.386;2022-10-16T17:13:47;18.60;99.90
39677;DHT22;27789;50.840;4.386;2022-10-16T17:16:13;18.40;99.90
39677;DHT22;27789;50.840;4.386;2022-10-16T17:18:39;18.30;99.90
39677;DHT22;27789;50.840;4.386;2022-10-16T17:21:07;18.20;99.90
39677;DHT22;27789;50.840;4.386;2022-10-16T17:23:34;18.10;99.90
39677;DHT22;27789;50.840;4.386;2022-10-16T17:26:12;18.10;99.90
39677;DHT22;27789;50.840;4.386;2022-10-16T17:28:38;18.00;99.90
39677;DHT22;27789;50.840;4.386;2022-10-16T17:31:15;17.90;99.90
39677;DHT22;27789;50.840;4.386;2022-10-16T17:33:42;17.90;99.90
39677;DHT22;27789;50.840;4.386;2022-10-16T17:36:08;17.80;99.90
39677;DHT22;27789;50.840;4.386;2022-10-16T17:38:35;17.80;99.90
39677;DHT22;27789;50.840;4.386;2022-10-16T17:41:16;17.80;99.90
39677;DHT22;27789;50.840;4.386;2022-10-16T17:43:42;17.70;99.90
39677;DHT22;27789;50.840;4.386;2022-10-16T17:46:08;17.70;99.90
39677;DHT22;27789;50.840;4.386;2022-10-16T17:48:43;17.70;99.90
39677;DHT22;27789;50.840;4.386;2022-10-16T17:51:13;17.70;99.90
39677;DHT22;27789;50.840;4.386;2022-10-16T17:53:39;17.70;99.90
39677;DHT22;27789;50.840;4.386;2022-10-16T17:56:10;17.70;99.90
39677;DHT22;27789;50.840;4.386;2022-10-16T17:58:36;17.60;99.90
39677;DHT22;27789;50.840;4.386;2022-10-16T18:01:14;17.60;99.90
39677;DHT22;27789;50.840;4.386;2022-10-16T18:03:39;17.60;99.90
39677;DHT22;27789;50.840;4.386;2022-10-16T18:06:05;17.50;99.90
39677;DHT22;27789;50.840;4.386;2022-10-16T18:08:31;17.50;99.90
39677;DHT22;27789;50.840;4.386;2022-10-16T18:10:56;17.60;99.90
39677;DHT22;27789;50.840;4.386;2022-10-16T18:13:22;17.50;99.90
39677;DHT22;27789;50.840;4.386;2022-10-16T18:15:59;17.50;99.90
39677;DHT22;27789;50.840;4.386;2022-10-16T18:18:25;17.50;99.90
39677;DHT22;27789;50.840;4.386;2022-10-16T18:21:01;17.50;99.90
39677;DHT22;27789;50.840;4.386;2022-10-16T18:23:27;17.50;99.90
39677;DHT22;27789;50.840;4.386;2022-10-16T18:25:53;17.50;99.90
39677;DHT22;27789;50.840;4.386;2022-10-16T18:28:18;17.50;99.90
39677;DHT22;27789;50.840;4.386;2022-10-16T18:30:44;17.40;99.90
39677;DHT22;27789;50.840;4.386;2022-10-16T18:33:10;17.30;99.90
39677;DHT22;27789;50.840;4.386;2022-10-16T18:35:36;17.30;99.90
39677;DHT22;27789;50.840;4.386;2022-10-16T18:38:01;17.40;99.90
39677;DHT22;27789;50.840;4.386;2022-10-16T18:40:27;17.40;99.90
39677;DHT22;27789;50.840;4.386;2022-10-16T18:42:53;17.30;99.90
39677;DHT22;27789;50.840;4.386;2022-10-16T18:45:19;17.30;99.90
39677;DHT22;27789;50.840;4.386;2022-10-16T18:47:45;17.40;99.90
39677;DHT22;27789;50.840;4.386;2022-10-16T18:50:11;17.30;99.90
39677;DHT22;27789;50.840;4.386;2022-10-16T18:52:46;17.40;99.90
39677;DHT22;27789;50.840;4.386;2022-10-16T18:55:12;17.40;99.90
39677;DHT22;27789;50.840;4.386;2022-10-16T18:57:37;17.30;99.90
39677;DHT22;27789;50.840;4.386;2022-10-16T19:00:03;17.30;99.90
39677;DHT22;27789;50.840;4.386;2022-10-16T19:02:29;17.30;99.90
39677;DHT22;27789;50.840;4.386;2022-10-16T19:04:54;17.30;99.90
39677;DHT22;27789;50.840;4.386;2022-10-16T19:07:20;17.20;99.90
39677;DHT22;27789;50.840;4.386;2022-10-16T19:09:45;17.20;99.90
39677;DHT22;27789;50.840;4.386;2022-10-16T19:12:11;17.20;99.90